Urbana, Illinois
Current Conditions -  °F | °C
As of 3:53 AM on Friday 24 Oct 2014 (Local Time) from KCMI Reporting Station
Broken Clouds Broken Clouds  
Wind Chill: 50°   Ceiling: 3800
Heat Index: 50°   Visibility: 8mi
Dew Point: 47°   Wind: 5mph
Humidity: 89%   Direction: 170°S
Pressure: 30.07"   Gusts: NA
Location:  40.12°N, 88.2°W
Report Text: KCMI 240853Z AUTO 17004KT 8SM BKN038 BKN065 10/08 A3007 RMK AO2 SLP182 60005 T01000083 56007 $
Loading
Personal Weather Stations






























Interactive Weather Map
Tropical Storm Tracking
New forecast layout! Learn more

10-Day Weather Forecast

Advertisements
Track Severe Weather on mobile